Terminal Aerodrome Forecast
Issued by NWS

Home | Current Version | Previous Version | Text Only | Print | Product List | Glossary On
Versions: 1 2 3 4 5 6 7 8 9 10 11 12 13 14 15 16
718
FTUS42 KMLB 091145
TAFLEE
TAF
KLEE 091145Z 0912/1012 34008KT P6SM SCT070 BKN120
     FM091600 36010KT P6SM FEW070 BKN130 BKN250
     FM092200 36009KT P6SM FEW100 BKN150
     FM100500 36007KT P6SM SCT250=

USA.gov is the U.S. government's official web portal to all federal, state and local government web resources and services.